createdAt,value
2022-09-30T00:00:09.744Z,90.52
2022-09-30T00:01:09.728Z,90.66
2022-09-30T00:02:09.744Z,90.77
2022-09-30T00:03:09.770Z,90.77
2022-09-30T00:04:09.678Z,90.77
2022-09-30T00:05:09.655Z,91.07
2022-09-30T00:06:09.678Z,91.38
2022-09-30T00:07:09.625Z,91.59
2022-09-30T00:08:09.649Z,91.49
2022-09-30T00:09:09.666Z,91.28
2022-09-30T00:10:09.638Z,91.03
2022-09-30T00:11:09.596Z,91.03
2022-09-30T00:12:09.578Z,91.03
2022-09-30T00:13:09.574Z,90.93
2022-09-30T00:14:09.565Z,90.72
2022-09-30T00:15:09.521Z,90.72
2022-09-30T00:16:09.837Z,90.72
2022-09-30T00:17:09.496Z,90.72
2022-09-30T00:18:09.486Z,90.52
2022-09-30T00:19:09.464Z,90.31
2022-09-30T00:20:09.435Z,90.20
2022-09-30T00:21:09.457Z,90.10
2022-09-30T00:22:09.417Z,89.59
2022-09-30T00:23:09.422Z,89.69
2022-09-30T00:24:09.416Z,89.89
2022-09-30T00:25:09.387Z,90.20
2022-09-30T00:26:09.405Z,90.41
2022-09-30T00:27:09.345Z,89.94
2022-09-30T00:28:09.345Z,89.52
2022-09-30T00:29:09.335Z,89.42
2022-09-30T00:30:09.338Z,89.32
2022-09-30T00:31:09.365Z,89.22
2022-09-30T00:32:09.293Z,89.56
2022-09-30T00:33:09.303Z,89.67
2022-09-30T00:34:09.528Z,89.87
2022-09-30T00:35:09.255Z,90.19
2022-09-30T00:36:09.265Z,90.45
2022-09-30T00:37:09.227Z,90.56
2022-09-30T00:38:09.216Z,90.35
2022-09-30T00:39:09.237Z,90.19
2022-09-30T00:40:09.177Z,90.25
2022-09-30T00:41:09.203Z,90.19
2022-09-30T00:42:09.159Z,90.08
2022-09-30T00:43:09.159Z,89.87
2022-09-30T00:44:09.235Z,89.25
2022-09-30T00:45:09.131Z,89.29
2022-09-30T00:46:09.105Z,89.71
2022-09-30T00:47:09.156Z,90.12
2022-09-30T00:48:09.073Z,90.29
2022-09-30T00:49:09.054Z,90.50
2022-09-30T00:50:09.055Z,90.50
2022-09-30T00:51:09.049Z,90.70
2022-09-30T00:52:09.025Z,90.60
2022-09-30T00:53:09.016Z,90.39
2022-09-30T00:54:08.985Z,90.39
2022-09-30T00:55:08.975Z,90.19
2022-09-30T00:56:08.980Z,90.02
2022-09-30T00:57:08.974Z,90.02
2022-09-30T00:58:08.956Z,90.33
2022-09-30T00:59:08.944Z,90.74
2022-09-30T01:00:08.915Z,90.95
2022-09-30T01:01:08.959Z,91.05
2022-09-30T01:02:08.958Z,91.05
2022-09-30T01:03:08.885Z,91.36
2022-09-30T01:04:08.866Z,91.36
2022-09-30T01:05:08.855Z,91.26
2022-09-30T01:06:08.837Z,91.16
2022-09-30T01:07:08.846Z,90.95
2022-09-30T01:08:08.828Z,90.74
2022-09-30T01:09:08.826Z,90.60
2022-09-30T01:10:08.802Z,90.50
2022-09-30T01:11:08.773Z,90.50
2022-09-30T01:12:08.775Z,90.19
2022-09-30T01:13:08.745Z,90.08
2022-09-30T01:14:08.715Z,90.08
2022-09-30T01:15:08.715Z,89.98
2022-09-30T01:16:08.764Z,90.02
2022-09-30T01:17:08.715Z,89.71
2022-09-30T01:18:08.714Z,89.81
2022-09-30T01:19:08.706Z,89.92
2022-09-30T01:20:08.691Z,89.92
2022-09-30T01:21:08.675Z,90.02
2022-09-30T01:22:08.646Z,90.02
2022-09-30T01:23:08.624Z,90.12
2022-09-30T01:24:08.604Z,90.02
2022-09-30T01:25:08.614Z,90.12
2022-09-30T01:26:08.566Z,90.23
2022-09-30T01:27:08.585Z,90.23
2022-09-30T01:28:08.576Z,89.92
2022-09-30T01:29:08.556Z,89.65
2022-09-30T01:30:08.543Z,89.54
2022-09-30T01:31:08.559Z,89.75
2022-09-30T01:32:08.512Z,90.16
2022-09-30T01:33:08.569Z,90.58
2022-09-30T01:34:08.505Z,90.78
2022-09-30T01:35:08.471Z,90.78
2022-09-30T01:36:08.435Z,90.83
2022-09-30T01:37:08.434Z,90.72
2022-09-30T01:38:08.425Z,90.78
2022-09-30T01:39:08.406Z,90.78
2022-09-30T01:40:08.396Z,90.68
2022-09-30T01:41:08.385Z,90.78
2022-09-30T01:42:08.356Z,90.78
2022-09-30T01:43:08.376Z,90.47
2022-09-30T01:44:08.346Z,90.16
2022-09-30T01:45:08.334Z,90.26
2022-09-30T01:46:08.305Z,90.37
2022-09-30T01:47:08.287Z,90.37
2022-09-30T01:48:08.295Z,90.37
2022-09-30T01:49:08.277Z,90.37
2022-09-30T01:50:08.248Z,90.06
2022-09-30T01:51:08.246Z,90.16
2022-09-30T01:52:08.226Z,90.47
2022-09-30T01:53:08.252Z,90.58
2022-09-30T01:54:08.225Z,90.62
2022-09-30T01:55:08.203Z,90.72
2022-09-30T01:56:08.195Z,90.72
2022-09-30T01:57:08.164Z,90.83
2022-09-30T01:58:08.162Z,91.03
2022-09-30T01:59:08.143Z,90.99
2022-09-30T02:00:08.131Z,90.78
2022-09-30T02:01:08.171Z,90.68
2022-09-30T02:02:08.128Z,90.58
2022-09-30T02:03:08.104Z,90.58
2022-09-30T02:04:08.095Z,90.68
2022-09-30T02:05:08.065Z,90.78
2022-09-30T02:06:08.035Z,90.89
2022-09-30T02:07:08.032Z,90.84
2022-09-30T02:08:08.024Z,90.84
2022-09-30T02:09:08.066Z,90.74
2022-09-30T02:10:07.991Z,90.64
2022-09-30T02:11:08.021Z,90.64
2022-09-30T02:12:07.955Z,90.44
2022-09-30T02:13:07.965Z,90.44
2022-09-30T02:14:07.936Z,90.33
2022-09-30T02:15:07.924Z,90.44
2022-09-30T02:16:07.914Z,90.64
2022-09-30T02:17:07.903Z,90.84
2022-09-30T02:18:07.885Z,90.95
2022-09-30T02:19:07.874Z,91.26
2022-09-30T02:20:07.852Z,91.36
2022-09-30T02:21:07.842Z,91.47
2022-09-30T02:22:07.834Z,91.67
2022-09-30T02:23:07.834Z,91.78
2022-09-30T02:24:07.808Z,91.78
2022-09-30T02:25:07.774Z,91.78
2022-09-30T02:26:07.764Z,91.88
2022-09-30T02:27:07.761Z,91.99
2022-09-30T02:28:07.761Z,92.09
2022-09-30T02:29:07.744Z,92.09
2022-09-30T02:30:07.715Z,91.99
2022-09-30T02:31:07.744Z,91.88
2022-09-30T02:32:07.687Z,91.88
2022-09-30T02:33:07.705Z,91.84
2022-09-30T02:34:07.686Z,91.84
2022-09-30T02:35:07.660Z,91.74
2022-09-30T02:36:07.644Z,91.53
2022-09-30T02:37:07.634Z,91.53
2022-09-30T02:38:07.643Z,91.74
2022-09-30T02:39:07.728Z,91.94
2022-09-30T02:40:07.723Z,92.30
2022-09-30T02:41:07.701Z,92.61
2022-09-30T02:42:07.603Z,92.81
2022-09-30T02:43:07.665Z,93.02
2022-09-30T02:44:07.750Z,93.12
2022-09-30T02:45:07.633Z,93.18
2022-09-30T02:46:07.504Z,93.29
2022-09-30T02:47:07.490Z,93.39
2022-09-30T02:48:07.473Z,93.49
2022-09-30T02:49:07.483Z,93.45
2022-09-30T02:50:07.445Z,93.35
2022-09-30T02:51:07.441Z,93.24
2022-09-30T02:52:07.423Z,93.14
2022-09-30T02:53:07.411Z,93.04
2022-09-30T02:54:07.442Z,92.93
2022-09-30T02:55:07.395Z,92.83
2022-09-30T02:56:07.372Z,92.83
2022-09-30T02:57:07.351Z,92.83
2022-09-30T02:58:07.334Z,92.72
2022-09-30T02:59:07.354Z,92.52
2022-09-30T03:00:12.557Z,92.52
2022-09-30T03:01:08.391Z,92.52
2022-09-30T03:02:07.320Z,92.63
2022-09-30T03:03:07.281Z,92.46
2022-09-30T03:04:07.283Z,92.46
2022-09-30T03:05:07.253Z,92.57
2022-09-30T03:06:07.231Z,92.97
2022-09-30T03:07:07.224Z,93.12
2022-09-30T03:08:07.205Z,93.43
2022-09-30T03:09:07.249Z,93.64
2022-09-30T03:10:07.174Z,93.95
2022-09-30T03:11:07.171Z,94.06
2022-09-30T03:12:07.163Z,94.06
2022-09-30T03:13:07.142Z,94.16
2022-09-30T03:14:07.155Z,94.16
2022-09-30T03:15:07.122Z,94.26
2022-09-30T03:16:09.737Z,94.26
2022-09-30T03:17:07.122Z,94.32
2022-09-30T03:18:07.093Z,94.53
2022-09-30T03:19:07.153Z,94.53
2022-09-30T03:20:07.070Z,94.63
2022-09-30T03:21:07.105Z,94.53
2022-09-30T03:22:07.042Z,94.32
2022-09-30T03:23:07.013Z,94.07
2022-09-30T03:24:07.012Z,93.91
2022-09-30T03:25:07.202Z,93.76
2022-09-30T03:26:06.965Z,93.55
2022-09-30T03:27:06.963Z,93.55
2022-09-30T03:28:06.940Z,93.66
2022-09-30T03:29:06.933Z,93.76
2022-09-30T03:30:06.935Z,93.66
2022-09-30T03:31:06.940Z,93.76
2022-09-30T03:32:06.893Z,93.76
2022-09-30T03:33:06.882Z,93.76
2022-09-30T03:34:06.853Z,93.76
2022-09-30T03:35:06.873Z,93.55
2022-09-30T03:36:06.830Z,93.66
2022-09-30T03:37:06.822Z,93.76
2022-09-30T03:38:06.809Z,93.76
2022-09-30T03:39:06.785Z,93.87
2022-09-30T03:40:06.792Z,93.87
2022-09-30T03:41:06.793Z,93.97
2022-09-30T03:42:06.762Z,94.07
2022-09-30T03:43:06.732Z,94.07
2022-09-30T03:44:06.740Z,94.18
2022-09-30T03:45:06.733Z,94.18
2022-09-30T03:46:06.702Z,94.03
2022-09-30T03:47:06.691Z,93.72
2022-09-30T03:48:06.681Z,93.51
2022-09-30T03:49:06.677Z,93.05
2022-09-30T03:50:06.673Z,92.58
2022-09-30T03:51:06.622Z,92.38
2022-09-30T03:52:06.624Z,92.48
2022-09-30T03:53:06.608Z,92.58
2022-09-30T03:54:06.611Z,92.38
2022-09-30T03:55:06.626Z,92.63
2022-09-30T03:56:06.585Z,93.04
2022-09-30T03:57:06.540Z,93.60
2022-09-30T03:58:06.541Z,94.22
2022-09-30T03:59:06.530Z,94.63
2022-09-30T04:00:06.564Z,94.73
2022-09-30T04:01:06.633Z,94.78
2022-09-30T04:02:06.557Z,94.98
2022-09-30T04:03:06.476Z,95.19
2022-09-30T04:04:06.473Z,95.50
2022-09-30T04:05:06.441Z,95.56
2022-09-30T04:06:06.451Z,95.56
2022-09-30T04:07:06.420Z,95.67
2022-09-30T04:08:06.411Z,95.67
2022-09-30T04:09:06.429Z,95.67
2022-09-30T04:10:06.383Z,95.56
2022-09-30T04:11:06.380Z,95.15
2022-09-30T04:12:06.376Z,94.94
2022-09-30T04:13:06.339Z,94.73
2022-09-30T04:14:06.341Z,94.78
2022-09-30T04:15:06.311Z,94.98
2022-09-30T04:16:06.397Z,95.09
2022-09-30T04:17:06.280Z,95.19
2022-09-30T04:18:06.301Z,95.40
2022-09-30T04:19:06.256Z,95.56
2022-09-30T04:20:06.249Z,95.77
2022-09-30T04:21:06.232Z,95.87
2022-09-30T04:22:06.220Z,95.67
2022-09-30T04:23:06.191Z,95.56
2022-09-30T04:24:06.212Z,95.42
2022-09-30T04:25:06.178Z,95.21
2022-09-30T04:26:06.171Z,94.79
2022-09-30T04:27:06.150Z,94.18
2022-09-30T04:28:06.142Z,93.87
2022-09-30T04:29:06.122Z,93.66
2022-09-30T04:30:06.102Z,93.66
2022-09-30T04:31:06.166Z,93.66
2022-09-30T04:32:06.091Z,93.66
2022-09-30T04:33:06.121Z,93.66
2022-09-30T04:34:06.081Z,93.66
2022-09-30T04:35:06.103Z,93.24
2022-09-30T04:36:06.050Z,93.24
2022-09-30T04:37:10.636Z,93.24
2022-09-30T04:38:06.021Z,92.83
2022-09-30T04:39:06.002Z,92.77
2022-09-30T04:40:05.982Z,93.02
2022-09-30T04:41:05.990Z,93.33
2022-09-30T04:42:06.016Z,93.74
2022-09-30T04:43:05.956Z,94.06
2022-09-30T04:44:05.943Z,94.41
2022-09-30T04:45:05.909Z,94.72
2022-09-30T04:46:06.062Z,94.93
2022-09-30T04:47:05.884Z,95.24
2022-09-30T04:48:05.869Z,95.65
2022-09-30T04:49:09.104Z,95.96
2022-09-30T04:50:05.854Z,95.96
2022-09-30T04:51:05.880Z,95.96
2022-09-30T04:52:05.865Z,95.86
2022-09-30T04:53:05.791Z,95.96
2022-09-30T04:54:05.820Z,96.06
2022-09-30T04:55:05.781Z,96.27
2022-09-30T04:56:05.782Z,96.27
2022-09-30T04:57:05.749Z,96.23
2022-09-30T04:58:05.761Z,96.12
2022-09-30T04:59:05.751Z,95.81
2022-09-30T05:00:05.733Z,95.40
2022-09-30T05:01:05.777Z,95.29
2022-09-30T05:02:05.765Z,95.34
2022-09-30T05:03:05.671Z,95.14
2022-09-30T05:04:05.670Z,95.24
2022-09-30T05:05:05.703Z,95.34
2022-09-30T05:06:05.670Z,95.44
2022-09-30T05:07:05.619Z,95.54
2022-09-30T05:08:05.614Z,95.75
2022-09-30T05:09:05.709Z,96.27
2022-09-30T05:10:05.585Z,96.37
2022-09-30T05:11:05.612Z,96.37
2022-09-30T05:12:05.561Z,96.37
2022-09-30T05:13:05.562Z,96.37
2022-09-30T05:14:05.623Z,96.37
2022-09-30T05:15:05.529Z,96.48
2022-09-30T05:16:05.576Z,96.48
2022-09-30T05:17:05.480Z,96.48
2022-09-30T05:18:05.548Z,96.48
2022-09-30T05:19:05.459Z,96.52
2022-09-30T05:20:05.456Z,96.62
2022-09-30T05:21:05.428Z,96.62
2022-09-30T05:22:05.460Z,96.62
2022-09-30T05:23:05.430Z,96.73
2022-09-30T05:24:05.452Z,96.79
2022-09-30T05:25:05.392Z,96.89
2022-09-30T05:26:09.710Z,96.89
2022-09-30T05:27:06.375Z,96.85
2022-09-30T05:28:05.350Z,96.64
2022-09-30T05:29:05.350Z,96.44
2022-09-30T05:30:05.342Z,96.23
2022-09-30T05:31:05.380Z,96.02
2022-09-30T05:32:05.313Z,95.77
2022-09-30T05:33:05.269Z,95.46
2022-09-30T05:34:05.267Z,94.94
2022-09-30T05:35:05.260Z,94.73
2022-09-30T05:36:05.229Z,94.73
2022-09-30T05:37:05.241Z,94.73
2022-09-30T05:38:05.189Z,94.63
2022-09-30T05:39:05.198Z,94.43
2022-09-30T05:40:05.188Z,94.32
2022-09-30T05:41:05.169Z,94.43
2022-09-30T05:42:05.210Z,94.53
2022-09-30T05:43:05.141Z,96.14
2022-09-30T05:44:05.141Z,99.99
2022-09-30T05:45:05.099Z,99.99
2022-09-30T05:46:05.098Z,99.99
2022-09-30T05:47:05.132Z,99.99
2022-09-30T05:48:05.077Z,99.99
2022-09-30T05:49:05.069Z,99.99
2022-09-30T05:50:05.051Z,98.18
2022-09-30T05:51:05.041Z,93.80
2022-09-30T05:52:05.029Z,89.05
2022-09-30T05:53:05.041Z,86.31
2022-09-30T05:54:05.013Z,85.83
2022-09-30T05:55:04.999Z,86.18
2022-09-30T05:56:05.010Z,86.74
2022-09-30T05:57:04.959Z,87.50
2022-09-30T05:58:05.211Z,88.37
2022-09-30T05:59:04.944Z,89.19
2022-09-30T06:00:04.931Z,89.54
2022-09-30T06:01:10.655Z,90.06
2022-09-30T06:02:06.071Z,90.68
2022-09-30T06:03:04.962Z,90.93
2022-09-30T06:04:04.868Z,91.13
2022-09-30T06:05:04.848Z,91.24
2022-09-30T06:06:04.843Z,91.59
2022-09-30T06:07:09.584Z,91.90
2022-09-30T06:08:05.830Z,92.36
2022-09-30T06:09:04.874Z,92.77
2022-09-30T06:10:04.800Z,93.08
2022-09-30T06:11:04.782Z,93.49
2022-09-30T06:12:04.759Z,93.85
2022-09-30T06:13:04.758Z,94.06
2022-09-30T06:14:04.730Z,94.37
2022-09-30T06:15:04.719Z,94.47
2022-09-30T06:16:04.802Z,94.57
2022-09-30T06:17:04.697Z,94.47
2022-09-30T06:18:04.708Z,94.68
2022-09-30T06:19:04.677Z,94.78
2022-09-30T06:20:04.786Z,94.89
2022-09-30T06:21:04.827Z,94.68
2022-09-30T06:22:04.629Z,94.68
2022-09-30T06:23:04.648Z,94.78
2022-09-30T06:24:04.624Z,94.89
2022-09-30T06:25:04.628Z,95.03
2022-09-30T06:26:04.580Z,95.34
2022-09-30T06:27:04.579Z,95.75
2022-09-30T06:28:04.578Z,95.96
2022-09-30T06:29:04.546Z,96.06
2022-09-30T06:30:04.519Z,96.06
2022-09-30T06:31:04.497Z,96.02
2022-09-30T06:32:04.567Z,96.02
2022-09-30T06:33:04.566Z,95.92
2022-09-30T06:34:04.481Z,96.02
2022-09-30T06:35:04.459Z,96.02
2022-09-30T06:36:04.503Z,96.12
2022-09-30T06:37:04.428Z,96.33
2022-09-30T06:38:04.410Z,96.33
2022-09-30T06:39:04.419Z,96.29
2022-09-30T06:40:04.390Z,96.19
2022-09-30T06:41:04.370Z,95.77
2022-09-30T06:42:04.359Z,95.15
2022-09-30T06:43:04.351Z,94.73
2022-09-30T06:44:04.358Z,94.43
2022-09-30T06:45:04.319Z,94.18
2022-09-30T06:46:14.997Z,94.07
2022-09-30T06:47:08.606Z,94.18
2022-09-30T06:48:05.388Z,94.07
2022-09-30T06:49:12.783Z,93.87
2022-09-30T06:50:05.878Z,93.66
2022-09-30T06:51:04.279Z,93.55
2022-09-30T06:52:04.236Z,93.66
2022-09-30T06:53:04.218Z,93.66
2022-09-30T06:54:04.219Z,93.45
2022-09-30T06:55:04.189Z,93.55
2022-09-30T06:56:04.180Z,93.76
2022-09-30T06:57:04.168Z,93.76
2022-09-30T06:58:04.207Z,93.82
2022-09-30T06:59:04.158Z,93.82
2022-09-30T07:00:04.130Z,93.72
2022-09-30T07:01:04.213Z,93.62
2022-09-30T07:02:04.176Z,93.82
2022-09-30T07:03:04.124Z,94.03
2022-09-30T07:04:04.094Z,94.13
2022-09-30T07:05:04.060Z,94.23
2022-09-30T07:06:04.061Z,94.23
2022-09-30T07:07:04.037Z,94.03
2022-09-30T07:08:04.019Z,93.93
2022-09-30T07:09:04.095Z,93.82
2022-09-30T07:10:03.993Z,93.82
2022-09-30T07:11:03.978Z,93.82
2022-09-30T07:12:03.969Z,93.82
2022-09-30T07:13:03.959Z,93.82
2022-09-30T07:14:03.958Z,93.47
2022-09-30T07:15:03.931Z,93.10
2022-09-30T07:16:03.971Z,92.89
2022-09-30T07:17:03.907Z,92.99
2022-09-30T07:18:03.889Z,92.99
2022-09-30T07:19:03.891Z,92.95
2022-09-30T07:20:03.856Z,92.85
2022-09-30T07:21:03.849Z,92.85
2022-09-30T07:22:03.837Z,92.74
2022-09-30T07:23:03.818Z,92.74
2022-09-30T07:24:03.834Z,92.64
2022-09-30T07:25:03.883Z,92.44
2022-09-30T07:26:03.788Z,92.58
2022-09-30T07:27:04.027Z,92.89
2022-09-30T07:28:03.860Z,93.10
2022-09-30T07:29:03.768Z,93.30
2022-09-30T07:30:09.731Z,93.55
2022-09-30T07:31:30.749Z,93.76
2022-09-30T07:32:04.795Z,93.87
2022-09-30T07:33:03.687Z,93.97
2022-09-30T07:34:03.730Z,94.18
2022-09-30T07:35:03.657Z,94.18
2022-09-30T07:36:03.656Z,94.43
2022-09-30T07:37:03.649Z,94.63
2022-09-30T07:38:03.619Z,94.84
2022-09-30T07:39:03.658Z,95.15
2022-09-30T07:40:03.599Z,95.36
2022-09-30T07:41:03.579Z,95.46
2022-09-30T07:42:03.547Z,95.67
2022-09-30T07:43:03.558Z,95.77
2022-09-30T07:44:03.715Z,95.56
2022-09-30T07:45:03.528Z,95.25
2022-09-30T07:46:03.632Z,95.15
2022-09-30T07:47:03.485Z,95.09
2022-09-30T07:48:03.678Z,94.98
2022-09-30T07:49:03.466Z,94.89
2022-09-30T07:50:03.466Z,94.89
2022-09-30T07:51:03.451Z,94.98
2022-09-30T07:52:03.438Z,95.19
2022-09-30T07:53:03.414Z,95.40
2022-09-30T07:54:03.427Z,95.71
2022-09-30T07:55:03.387Z,95.71
2022-09-30T07:56:03.381Z,95.61
2022-09-30T07:57:11.549Z,95.46
2022-09-30T07:58:04.346Z,95.36
2022-09-30T07:59:03.356Z,95.36
2022-09-30T08:00:23.050Z,95.15
2022-09-30T08:01:04.367Z,95.15
2022-09-30T08:02:03.326Z,95.15
2022-09-30T08:03:03.286Z,95.19
2022-09-30T08:04:03.285Z,95.25
2022-09-30T08:05:03.258Z,95.46
2022-09-30T08:06:03.245Z,95.73
2022-09-30T08:07:03.243Z,95.83
2022-09-30T08:08:03.224Z,95.62
2022-09-30T08:09:03.248Z,94.79
2022-09-30T08:10:03.208Z,94.07
2022-09-30T08:11:03.184Z,93.66
2022-09-30T08:12:03.199Z,93.66
2022-09-30T08:13:05.688Z,93.87
2022-09-30T08:14:03.155Z,94.07
2022-09-30T08:15:03.137Z,93.66
2022-09-30T08:16:03.124Z,93.45
2022-09-30T08:17:03.103Z,93.66
2022-09-30T08:18:03.086Z,94.07
2022-09-30T08:19:03.097Z,94.48
2022-09-30T08:20:03.057Z,94.65
2022-09-30T08:21:03.047Z,94.03
2022-09-30T08:23:03.027Z,93.82
2022-09-30T08:24:03.065Z,94.03
2022-09-30T08:25:02.998Z,94.03
2022-09-30T08:26:02.979Z,94.13
2022-09-30T08:27:03.008Z,94.09
2022-09-30T08:28:02.966Z,93.98
2022-09-30T08:29:02.957Z,93.68
2022-09-30T08:30:04.685Z,92.85
2022-09-30T08:31:02.935Z,92.74
2022-09-30T08:32:03.009Z,92.79
2022-09-30T08:33:02.896Z,92.58
2022-09-30T08:34:02.896Z,92.48
2022-09-30T08:35:02.867Z,92.89
2022-09-30T08:36:02.846Z,93.20
2022-09-30T08:37:08.361Z,93.62
2022-09-30T08:38:03.848Z,94.03
2022-09-30T08:39:02.830Z,94.29
2022-09-30T08:40:02.797Z,94.40
2022-09-30T08:41:02.825Z,94.19
2022-09-30T08:42:13.719Z,93.94
2022-09-30T08:43:03.764Z,93.84
2022-09-30T08:44:02.755Z,93.63
2022-09-30T08:45:02.727Z,93.18
2022-09-30T08:46:02.863Z,92.55
2022-09-30T08:47:02.709Z,92.04
2022-09-30T08:48:02.735Z,91.73
2022-09-30T08:49:03.567Z,91.83
2022-09-30T08:50:03.060Z,91.94
2022-09-30T08:51:02.658Z,91.94
2022-09-30T08:52:02.675Z,91.94
2022-09-30T08:53:03.163Z,92.04
2022-09-30T08:54:02.616Z,92.25
2022-09-30T08:55:02.627Z,92.35
2022-09-30T08:56:02.870Z,92.41
2022-09-30T08:57:02.576Z,92.41
2022-09-30T08:58:02.662Z,91.89
2022-09-30T08:59:02.557Z,91.58
2022-09-30T09:00:02.548Z,91.38
2022-09-30T09:01:02.600Z,91.38
2022-09-30T09:02:02.554Z,91.69
2022-09-30T09:03:02.507Z,92.00
2022-09-30T09:04:02.483Z,92.10
2022-09-30T09:05:02.516Z,92.16
2022-09-30T09:06:02.469Z,92.16
2022-09-30T09:07:02.466Z,91.85
2022-09-30T09:08:02.436Z,91.75
2022-09-30T09:09:02.446Z,91.96
2022-09-30T09:10:02.435Z,91.85
2022-09-30T09:11:02.407Z,91.50
2022-09-30T09:12:02.386Z,91.09
2022-09-30T09:13:02.379Z,90.88
2022-09-30T09:14:02.358Z,90.78
2022-09-30T09:15:02.368Z,90.57
2022-09-30T09:16:02.337Z,90.16
2022-09-30T09:17:02.363Z,90.06
2022-09-30T09:18:22.569Z,90.37
2022-09-30T09:19:03.304Z,90.67
2022-09-30T09:20:02.288Z,90.47
2022-09-30T09:21:02.288Z,90.26
2022-09-30T09:22:02.287Z,90.16
2022-09-30T09:23:02.246Z,90.01
2022-09-30T09:24:02.296Z,89.81
2022-09-30T09:25:02.308Z,89.81
2022-09-30T09:26:02.227Z,89.71
2022-09-30T09:27:02.247Z,89.56
2022-09-30T09:28:02.290Z,88.57
2022-09-30T09:29:02.188Z,88.57
2022-09-30T09:30:02.166Z,88.78
2022-09-30T09:31:02.468Z,88.99
2022-09-30T09:32:02.236Z,89.34
2022-09-30T09:33:02.108Z,89.95
2022-09-30T09:34:02.111Z,90.47
2022-09-30T09:35:02.097Z,90.78
2022-09-30T09:36:02.070Z,91.05
2022-09-30T09:37:02.047Z,91.25
2022-09-30T09:38:02.047Z,91.25
2022-09-30T09:39:02.037Z,91.31
2022-09-30T09:40:04.329Z,91.31
2022-09-30T09:41:02.007Z,91.21
2022-09-30T09:42:02.004Z,90.86
2022-09-30T09:43:01.987Z,90.45
2022-09-30T09:44:01.956Z,90.14
2022-09-30T09:45:01.974Z,89.83
2022-09-30T09:46:01.986Z,89.52
2022-09-30T09:47:01.934Z,89.48
2022-09-30T09:48:01.908Z,89.58
2022-09-30T09:49:01.900Z,89.48
2022-09-30T09:50:01.877Z,89.58
2022-09-30T09:51:01.908Z,89.79
2022-09-30T09:52:01.866Z,89.79
2022-09-30T09:53:01.847Z,89.17
2022-09-30T09:54:01.829Z,88.66
2022-09-30T09:55:01.827Z,88.90
2022-09-30T09:56:01.846Z,89.28
2022-09-30T09:57:01.802Z,89.58
2022-09-30T09:58:01.776Z,89.89
2022-09-30T09:59:01.775Z,90.00
2022-09-30T10:00:01.751Z,90.20
2022-09-30T10:01:04.093Z,90.26
2022-09-30T10:02:01.770Z,90.26
2022-09-30T10:03:01.716Z,89.95
2022-09-30T10:04:01.688Z,89.75
2022-09-30T10:05:01.677Z,89.64
2022-09-30T10:06:01.691Z,89.54
2022-09-30T10:07:01.733Z,89.44
2022-09-30T10:08:01.636Z,88.92
2022-09-30T10:09:01.632Z,88.51
2022-09-30T10:10:01.609Z,88.27
2022-09-30T10:11:01.622Z,88.37
2022-09-30T10:12:01.583Z,88.57
2022-09-30T10:13:01.575Z,88.89
2022-09-30T10:14:01.596Z,88.98
2022-09-30T10:15:01.541Z,88.74
2022-09-30T10:16:01.610Z,88.64
2022-09-30T10:17:01.517Z,88.53
2022-09-30T10:18:01.507Z,88.64
2022-09-30T10:19:03.972Z,88.64
2022-09-30T10:20:02.466Z,88.53
2022-09-30T10:21:01.468Z,88.49
2022-09-30T10:22:01.436Z,88.49
2022-09-30T10:23:01.427Z,88.49
2022-09-30T10:24:01.416Z,88.49
2022-09-30T10:25:01.407Z,88.08
2022-09-30T10:26:01.437Z,86.99
2022-09-30T10:27:01.375Z,87.20
2022-09-30T10:28:01.459Z,87.51
2022-09-30T10:29:01.357Z,88.33
2022-09-30T10:30:01.337Z,88.64
2022-09-30T10:31:01.338Z,88.74
2022-09-30T10:32:01.363Z,88.84
2022-09-30T10:33:01.296Z,88.70
2022-09-30T10:34:01.284Z,88.49
2022-09-30T10:35:01.260Z,88.59
2022-09-30T10:36:01.247Z,88.29
2022-09-30T10:37:01.270Z,87.57
2022-09-30T10:38:01.226Z,88.18
2022-09-30T10:39:04.105Z,88.96
2022-09-30T10:40:02.199Z,89.17
2022-09-30T10:41:01.195Z,88.96
2022-09-30T10:42:01.188Z,88.82
2022-09-30T10:43:01.156Z,88.41
2022-09-30T10:44:01.170Z,88.00
2022-09-30T10:45:01.174Z,87.85
2022-09-30T10:46:21.251Z,87.61
2022-09-30T10:47:02.304Z,87.51
2022-09-30T10:48:01.097Z,87.51
2022-09-30T10:49:01.089Z,87.26
2022-09-30T10:50:01.061Z,87.57
2022-09-30T10:51:01.058Z,86.91
2022-09-30T10:52:01.088Z,86.10
2022-09-30T10:53:01.030Z,86.10
2022-09-30T10:54:01.018Z,86.05
2022-09-30T10:55:01.102Z,86.05
2022-09-30T10:56:00.988Z,85.75
2022-09-30T10:57:01.551Z,85.20
2022-09-30T10:58:00.957Z,84.38
2022-09-30T10:59:00.948Z,83.76
2022-09-30T11:00:00.937Z,83.25
2022-09-30T11:01:00.959Z,82.64
2022-09-30T11:02:02.975Z,81.41
2022-09-30T11:03:00.915Z,82.84
2022-09-30T11:04:00.893Z,83.83
2022-09-30T11:05:00.859Z,84.55
2022-09-30T11:06:00.868Z,84.44
2022-09-30T11:07:00.857Z,83.07
2022-09-30T11:08:00.817Z,83.79
2022-09-30T11:09:00.797Z,83.59
2022-09-30T11:10:00.787Z,83.75
2022-09-30T11:11:02.776Z,83.14
2022-09-30T11:12:07.901Z,82.93
2022-09-30T11:13:00.779Z,83.10
2022-09-30T11:14:00.729Z,82.28
2022-09-30T11:15:00.731Z,81.57
2022-09-30T11:16:00.713Z,80.85
2022-09-30T11:17:00.715Z,81.87
2022-09-30T11:18:00.671Z,81.73
2022-09-30T11:19:00.674Z,81.73
2022-09-30T11:20:00.654Z,81.73
2022-09-30T11:21:00.672Z,81.94
2022-09-30T11:22:00.661Z,82.00
2022-09-30T11:23:00.630Z,86.55
2022-09-30T11:24:00.589Z,85.66
2022-09-30T11:25:00.581Z,84.05
2022-09-30T11:26:00.562Z,81.12
2022-09-30T11:27:00.552Z,79.12
2022-09-30T11:28:00.600Z,77.45
2022-09-30T11:29:00.542Z,75.56
2022-09-30T11:30:00.511Z,74.30
2022-09-30T11:31:03.781Z,73.16
2022-09-30T11:32:01.536Z,72.41
2022-09-30T11:33:00.494Z,71.91
2022-09-30T11:34:00.462Z,71.09
2022-09-30T11:35:00.777Z,70.56
2022-09-30T11:36:00.451Z,69.74
2022-09-30T11:37:00.427Z,70.08
2022-09-30T11:38:00.424Z,70.29
2022-09-30T11:39:00.392Z,70.05
2022-09-30T11:40:00.428Z,69.65
2022-09-30T11:41:00.384Z,69.44
2022-09-30T11:42:00.373Z,69.65
2022-09-30T11:43:06.283Z,69.34
2022-09-30T11:44:01.326Z,68.84
2022-09-30T11:45:00.430Z,68.94
2022-09-30T11:46:00.361Z,67.32
2022-09-30T11:47:00.311Z,67.62
2022-09-30T11:48:00.305Z,67.72
2022-09-30T11:49:00.280Z,68.10
2022-09-30T11:50:00.274Z,67.89
2022-09-30T11:51:00.253Z,66.41
2022-09-30T11:52:00.233Z,68.02
2022-09-30T11:53:00.242Z,67.82
2022-09-30T11:54:00.203Z,67.62
2022-09-30T11:55:00.196Z,66.50
2022-09-30T11:56:00.193Z,67.42
2022-09-30T11:57:00.165Z,66.91
2022-09-30T11:58:05.297Z,66.61
2022-09-30T11:59:01.150Z,67.55
2022-09-30T12:00:00.159Z,66.74
2022-09-30T12:01:00.169Z,67.55
2022-09-30T12:02:00.153Z,67.62
2022-09-30T12:03:00.166Z,67.11
2022-09-30T12:04:00.080Z,66.71
2022-09-30T12:05:00.066Z,66.67
2022-09-30T12:06:00.129Z,66.38
2022-09-30T12:07:00.039Z,66.24
2022-09-30T12:08:00.037Z,65.94
2022-09-30T12:09:00.095Z,65.73
2022-09-30T12:10:00.023Z,65.61
2022-09-30T12:10:59.978Z,64.90
2022-09-30T12:11:59.974Z,65.64
2022-09-30T12:12:59.965Z,65.94
2022-09-30T12:13:59.945Z,66.14
2022-09-30T12:15:00.324Z,66.21
2022-09-30T12:15:59.946Z,65.70
2022-09-30T12:17:00.236Z,65.81
2022-09-30T12:17:59.905Z,63.41
2022-09-30T12:18:59.857Z,65.64
2022-09-30T12:19:59.855Z,65.43
2022-09-30T12:20:59.866Z,64.32
2022-09-30T12:21:59.873Z,65.87
2022-09-30T12:22:59.826Z,66.38
2022-09-30T12:23:59.806Z,66.14
2022-09-30T12:24:59.786Z,65.73
2022-09-30T12:25:59.776Z,65.43
2022-09-30T12:26:59.786Z,65.30
2022-09-30T12:27:59.823Z,64.49
2022-09-30T12:29:03.336Z,65.30
2022-09-30T12:29:59.725Z,64.19
2022-09-30T12:30:59.706Z,65.00
2022-09-30T12:31:59.722Z,65.20
2022-09-30T12:32:59.695Z,65.10
2022-09-30T12:33:59.672Z,65.20
2022-09-30T12:34:59.657Z,64.49
2022-09-30T12:35:59.629Z,64.87
2022-09-30T12:36:59.628Z,64.87
2022-09-30T12:37:59.667Z,64.56
2022-09-30T12:38:59.639Z,64.53
2022-09-30T12:39:59.578Z,64.53
2022-09-30T12:40:59.572Z,64.53
2022-09-30T12:41:59.557Z,64.23
2022-09-30T12:42:59.558Z,64.33
2022-09-30T12:43:59.536Z,64.33
2022-09-30T12:44:59.518Z,63.73
2022-09-30T12:45:59.583Z,64.33
2022-09-30T12:46:59.532Z,64.64
2022-09-30T12:47:59.583Z,64.33
2022-09-30T12:48:59.469Z,64.23
2022-09-30T12:49:59.448Z,63.93
2022-09-30T12:50:59.428Z,63.52
2022-09-30T12:51:59.428Z,63.32
2022-09-30T12:52:59.419Z,64.13